sensor_id;sensor_type;location;lat;lon;timestamp;P1;durP1;ratioP1;P2;durP2;ratioP2
8952;SDS011;4511;50.890;8.054;2023-04-15T00:00:08;7.17;;;5.93;;
8952;SDS011;4511;50.890;8.054;2023-04-15T00:02:36;8.50;;;6.77;;
8952;SDS011;4511;50.890;8.054;2023-04-15T00:05:03;8.93;;;6.10;;
8952;SDS011;4511;50.890;8.054;2023-04-15T00:07:30;6.60;;;5.90;;
8952;SDS011;4511;50.890;8.054;2023-04-15T00:09:58;7.83;;;6.47;;
8952;SDS011;4511;50.890;8.054;2023-04-15T00:12:26;7.97;;;6.77;;
8952;SDS011;4511;50.890;8.054;2023-04-15T00:14:53;9.10;;;6.50;;
8952;SDS011;4511;50.890;8.054;2023-04-15T00:17:21;8.57;;;6.63;;
8952;SDS011;4511;50.890;8.054;2023-04-15T00:19:48;7.70;;;6.57;;
8952;SDS011;4511;50.890;8.054;2023-04-15T00:22:14;7.60;;;6.67;;
8952;SDS011;4511;50.890;8.054;2023-04-15T00:24:42;8.87;;;7.03;;
8952;SDS011;4511;50.890;8.054;2023-04-15T00:27:10;7.13;;;6.37;;
8952;SDS011;4511;50.890;8.054;2023-04-15T00:29:37;10.50;;;7.67;;
8952;SDS011;4511;50.890;8.054;2023-04-15T00:32:03;10.37;;;6.80;;
8952;SDS011;4511;50.890;8.054;2023-04-15T00:34:30;10.27;;;6.93;;
8952;SDS011;4511;50.890;8.054;2023-04-15T00:36:57;8.13;;;6.63;;
8952;SDS011;4511;50.890;8.054;2023-04-15T00:39:24;9.20;;;6.63;;
8952;SDS011;4511;50.890;8.054;2023-04-15T00:41:52;9.10;;;6.63;;
8952;SDS011;4511;50.890;8.054;2023-04-15T00:44:21;8.73;;;7.30;;
8952;SDS011;4511;50.890;8.054;2023-04-15T00:46:48;9.27;;;7.07;;
8952;SDS011;4511;50.890;8.054;2023-04-15T00:49:17;9.47;;;7.03;;
8952;SDS011;4511;50.890;8.054;2023-04-15T00:51:44;7.70;;;6.87;;
8952;SDS011;4511;50.890;8.054;2023-04-15T00:54:11;7.93;;;7.10;;
8952;SDS011;4511;50.890;8.054;2023-04-15T00:56:38;7.43;;;6.33;;
8952;SDS011;4511;50.890;8.054;2023-04-15T00:59:06;10.80;;;7.03;;
8952;SDS011;4511;50.890;8.054;2023-04-15T01:01:35;10.20;;;7.70;;
8952;SDS011;4511;50.890;8.054;2023-04-15T01:04:03;12.57;;;7.43;;
8952;SDS011;4511;50.890;8.054;2023-04-15T01:06:31;9.40;;;7.63;;
8952;SDS011;4511;50.890;8.054;2023-04-15T01:08:58;8.70;;;6.90;;
8952;SDS011;4511;50.890;8.054;2023-04-15T01:11:25;8.67;;;6.63;;
8952;SDS011;4511;50.890;8.054;2023-04-15T01:13:53;9.30;;;6.90;;
8952;SDS011;4511;50.890;8.054;2023-04-15T01:16:22;9.43;;;7.00;;
8952;SDS011;4511;50.890;8.054;2023-04-15T01:18:50;10.23;;;7.27;;
8952;SDS011;4511;50.890;8.054;2023-04-15T01:21:17;8.37;;;7.47;;
8952;SDS011;4511;50.890;8.054;2023-04-15T01:23:45;8.90;;;7.90;;
8952;SDS011;4511;50.890;8.054;2023-04-15T01:26:14;8.73;;;7.60;;
8952;SDS011;4511;50.890;8.054;2023-04-15T01:28:41;8.23;;;7.10;;
8952;SDS011;4511;50.890;8.054;2023-04-15T01:31:10;8.73;;;7.40;;
8952;SDS011;4511;50.890;8.054;2023-04-15T01:33:38;7.77;;;7.00;;
8952;SDS011;4511;50.890;8.054;2023-04-15T01:36:06;7.23;;;6.50;;
8952;SDS011;4511;50.890;8.054;2023-04-15T01:38:35;7.87;;;7.03;;
8952;SDS011;4511;50.890;8.054;2023-04-15T01:41:02;7.87;;;7.07;;
8952;SDS011;4511;50.890;8.054;2023-04-15T01:43:32;7.03;;;6.43;;
8952;SDS011;4511;50.890;8.054;2023-04-15T01:46:00;9.43;;;7.00;;
8952;SDS011;4511;50.890;8.054;2023-04-15T01:48:26;7.60;;;6.80;;
8952;SDS011;4511;50.890;8.054;2023-04-15T01:50:53;9.80;;;8.00;;
8952;SDS011;4511;50.890;8.054;2023-04-15T01:53:22;8.37;;;7.13;;
8952;SDS011;4511;50.890;8.054;2023-04-15T01:55:49;10.23;;;7.30;;
8952;SDS011;4511;50.890;8.054;2023-04-15T01:58:17;8.47;;;6.90;;
8952;SDS011;4511;50.890;8.054;2023-04-15T02:00:47;7.10;;;6.40;;
8952;SDS011;4511;50.890;8.054;2023-04-15T02:03:14;7.73;;;6.93;;
8952;SDS011;4511;50.890;8.054;2023-04-15T02:05:42;8.73;;;7.10;;
8952;SDS011;4511;50.890;8.054;2023-04-15T02:08:08;8.13;;;7.00;;
8952;SDS011;4511;50.890;8.054;2023-04-15T02:10:36;8.60;;;6.97;;
8952;SDS011;4511;50.890;8.054;2023-04-15T02:13:03;8.47;;;6.80;;
8952;SDS011;4511;50.890;8.054;2023-04-15T02:15:29;7.47;;;6.47;;
8952;SDS011;4511;50.890;8.054;2023-04-15T02:17:58;6.83;;;6.23;;
8952;SDS011;4511;50.890;8.054;2023-04-15T02:20:26;7.93;;;6.50;;
8952;SDS011;4511;50.890;8.054;2023-04-15T02:22:54;7.87;;;6.87;;
8952;SDS011;4511;50.890;8.054;2023-04-15T02:25:21;8.00;;;6.70;;
8952;SDS011;4511;50.890;8.054;2023-04-15T02:27:48;7.77;;;6.90;;
8952;SDS011;4511;50.890;8.054;2023-04-15T02:30:15;9.10;;;6.80;;
8952;SDS011;4511;50.890;8.054;2023-04-15T02:32:42;10.23;;;7.40;;
8952;SDS011;4511;50.890;8.054;2023-04-15T02:35:10;8.00;;;6.70;;
8952;SDS011;4511;50.890;8.054;2023-04-15T02:37:37;8.13;;;6.87;;
8952;SDS011;4511;50.890;8.054;2023-04-15T02:40:07;8.07;;;7.00;;
8952;SDS011;4511;50.890;8.054;2023-04-15T02:42:36;8.00;;;6.80;;
8952;SDS011;4511;50.890;8.054;2023-04-15T02:45:04;8.50;;;6.57;;
8952;SDS011;4511;50.890;8.054;2023-04-15T02:47:31;8.13;;;6.57;;
8952;SDS011;4511;50.890;8.054;2023-04-15T02:49:58;10.37;;;7.27;;
8952;SDS011;4511;50.890;8.054;2023-04-15T02:52:27;7.47;;;6.77;;
8952;SDS011;4511;50.890;8.054;2023-04-15T02:54:54;7.73;;;7.03;;
8952;SDS011;4511;50.890;8.054;2023-04-15T02:57:24;7.70;;;6.87;;
8952;SDS011;4511;50.890;8.054;2023-04-15T02:59:51;8.87;;;7.00;;
8952;SDS011;4511;50.890;8.054;2023-04-15T03:02:18;7.80;;;7.00;;
8952;SDS011;4511;50.890;8.054;2023-04-15T03:04:45;9.03;;;6.70;;
8952;SDS011;4511;50.890;8.054;2023-04-15T03:07:12;9.97;;;6.83;;
8952;SDS011;4511;50.890;8.054;2023-04-15T03:09:40;8.37;;;7.33;;
8952;SDS011;4511;50.890;8.054;2023-04-15T03:12:07;9.07;;;6.97;;
8952;SDS011;4511;50.890;8.054;2023-04-15T03:14:34;9.40;;;7.10;;
8952;SDS011;4511;50.890;8.054;2023-04-15T03:17:01;7.60;;;6.90;;
8952;SDS011;4511;50.890;8.054;2023-04-15T03:19:28;7.37;;;6.67;;
8952;SDS011;4511;50.890;8.054;2023-04-15T03:21:55;7.83;;;6.60;;
8952;SDS011;4511;50.890;8.054;2023-04-15T03:24:22;14.47;;;7.27;;
8952;SDS011;4511;50.890;8.054;2023-04-15T03:26:51;7.80;;;7.00;;
8952;SDS011;4511;50.890;8.054;2023-04-15T03:29:19;8.80;;;7.67;;
8952;SDS011;4511;50.890;8.054;2023-04-15T03:31:45;9.80;;;7.87;;
8952;SDS011;4511;50.890;8.054;2023-04-15T03:34:12;9.20;;;8.03;;
8952;SDS011;4511;50.890;8.054;2023-04-15T03:36:39;8.67;;;7.73;;
8952;SDS011;4511;50.890;8.054;2023-04-15T03:39:06;9.37;;;7.57;;
8952;SDS011;4511;50.890;8.054;2023-04-15T03:41:32;9.37;;;7.70;;
8952;SDS011;4511;50.890;8.054;2023-04-15T03:44:01;7.97;;;7.17;;
8952;SDS011;4511;50.890;8.054;2023-04-15T03:46:27;10.00;;;7.30;;
8952;SDS011;4511;50.890;8.054;2023-04-15T03:48:54;8.13;;;7.03;;
8952;SDS011;4511;50.890;8.054;2023-04-15T03:51:21;10.20;;;7.83;;
8952;SDS011;4511;50.890;8.054;2023-04-15T03:53:48;8.67;;;7.80;;
8952;SDS011;4511;50.890;8.054;2023-04-15T03:56:15;10.50;;;7.50;;
8952;SDS011;4511;50.890;8.054;2023-04-15T03:58:41;7.97;;;7.17;;
8952;SDS011;4511;50.890;8.054;2023-04-15T04:01:09;10.37;;;7.87;;
8952;SDS011;4511;50.890;8.054;2023-04-15T04:03:36;8.63;;;7.50;;
8952;SDS011;4511;50.890;8.054;2023-04-15T04:06:03;9.47;;;7.60;;
8952;SDS011;4511;50.890;8.054;2023-04-15T04:08:30;8.67;;;7.80;;
8952;SDS011;4511;50.890;8.054;2023-04-15T04:10:57;8.70;;;7.70;;
8952;SDS011;4511;50.890;8.054;2023-04-15T04:13:23;10.33;;;7.80;;
8952;SDS011;4511;50.890;8.054;2023-04-15T04:15:50;8.97;;;7.37;;
8952;SDS011;4511;50.890;8.054;2023-04-15T04:18:18;8.67;;;7.67;;
8952;SDS011;4511;50.890;8.054;2023-04-15T04:20:45;9.37;;;8.10;;
8952;SDS011;4511;50.890;8.054;2023-04-15T04:23:12;8.00;;;7.20;;
8952;SDS011;4511;50.890;8.054;2023-04-15T04:25:39;8.80;;;7.60;;
8952;SDS011;4511;50.890;8.054;2023-04-15T04:28:05;9.93;;;7.40;;
8952;SDS011;4511;50.890;8.054;2023-04-15T04:30:32;9.17;;;7.77;;
8952;SDS011;4511;50.890;8.054;2023-04-15T04:33:00;10.53;;;8.43;;
8952;SDS011;4511;50.890;8.054;2023-04-15T04:35:28;8.17;;;7.37;;
8952;SDS011;4511;50.890;8.054;2023-04-15T04:37:57;9.47;;;7.27;;
8952;SDS011;4511;50.890;8.054;2023-04-15T04:40:24;9.00;;;8.10;;
8952;SDS011;4511;50.890;8.054;2023-04-15T04:42:51;9.37;;;7.87;;
8952;SDS011;4511;50.890;8.054;2023-04-15T04:45:18;9.80;;;8.00;;
8952;SDS011;4511;50.890;8.054;2023-04-15T04:47:45;10.00;;;8.70;;
8952;SDS011;4511;50.890;8.054;2023-04-15T04:50:11;8.37;;;7.40;;
8952;SDS011;4511;50.890;8.054;2023-04-15T04:52:40;9.03;;;8.13;;
8952;SDS011;4511;50.890;8.054;2023-04-15T04:55:06;8.70;;;7.90;;
8952;SDS011;4511;50.890;8.054;2023-04-15T04:57:33;8.73;;;7.93;;
8952;SDS011;4511;50.890;8.054;2023-04-15T05:00:01;8.50;;;7.77;;
8952;SDS011;4511;50.890;8.054;2023-04-15T05:02:29;9.63;;;8.63;;
8952;SDS011;4511;50.890;8.054;2023-04-15T05:04:56;11.33;;;8.97;;
8952;SDS011;4511;50.890;8.054;2023-04-15T05:07:23;9.43;;;8.47;;
8952;SDS011;4511;50.890;8.054;2023-04-15T05:09:51;8.87;;;7.80;;
8952;SDS011;4511;50.890;8.054;2023-04-15T05:12:18;10.17;;;7.50;;
8952;SDS011;4511;50.890;8.054;2023-04-15T05:14:44;9.97;;;8.63;;
8952;SDS011;4511;50.890;8.054;2023-04-15T05:17:11;10.93;;;7.70;;
8952;SDS011;4511;50.890;8.054;2023-04-15T05:19:38;11.17;;;8.40;;
8952;SDS011;4511;50.890;8.054;2023-04-15T05:22:05;9.50;;;8.47;;
8952;SDS011;4511;50.890;8.054;2023-04-15T05:24:32;8.40;;;7.60;;
8952;SDS011;4511;50.890;8.054;2023-04-15T05:27:03;10.10;;;8.50;;
8952;SDS011;4511;50.890;8.054;2023-04-15T05:29:30;9.50;;;8.43;;
8952;SDS011;4511;50.890;8.054;2023-04-15T05:31:56;9.73;;;7.87;;
8952;SDS011;4511;50.890;8.054;2023-04-15T05:34:23;10.77;;;8.90;;
8952;SDS011;4511;50.890;8.054;2023-04-15T05:36:50;11.13;;;8.73;;
8952;SDS011;4511;50.890;8.054;2023-04-15T05:39:17;10.73;;;9.00;;
8952;SDS011;4511;50.890;8.054;2023-04-15T05:41:44;9.77;;;8.73;;
8952;SDS011;4511;50.890;8.054;2023-04-15T05:44:13;9.73;;;8.73;;
8952;SDS011;4511;50.890;8.054;2023-04-15T05:46:40;9.30;;;8.37;;
8952;SDS011;4511;50.890;8.054;2023-04-15T05:49:07;9.50;;;8.50;;
8952;SDS011;4511;50.890;8.054;2023-04-15T05:51:34;10.53;;;8.27;;
8952;SDS011;4511;50.890;8.054;2023-04-15T05:54:01;9.57;;;8.67;;
8952;SDS011;4511;50.890;8.054;2023-04-15T05:56:27;9.47;;;8.43;;
8952;SDS011;4511;50.890;8.054;2023-04-15T05:58:54;9.17;;;7.90;;
8952;SDS011;4511;50.890;8.054;2023-04-15T06:01:22;11.63;;;8.20;;
8952;SDS011;4511;50.890;8.054;2023-04-15T06:03:49;10.43;;;8.23;;
8952;SDS011;4511;50.890;8.054;2023-04-15T06:06:16;9.50;;;8.50;;
8952;SDS011;4511;50.890;8.054;2023-04-15T06:08:42;9.73;;;8.30;;
8952;SDS011;4511;50.890;8.054;2023-04-15T06:11:10;9.73;;;8.33;;
8952;SDS011;4511;50.890;8.054;2023-04-15T06:13:37;9.13;;;8.23;;
8952;SDS011;4511;50.890;8.054;2023-04-15T06:16:03;9.67;;;8.40;;
8952;SDS011;4511;50.890;8.054;2023-04-15T06:18:32;10.67;;;9.00;;
8952;SDS011;4511;50.890;8.054;2023-04-15T06:20:59;9.87;;;8.80;;
8952;SDS011;4511;50.890;8.054;2023-04-15T06:23:25;9.40;;;8.50;;
8952;SDS011;4511;50.890;8.054;2023-04-15T06:25:52;10.27;;;8.27;;
8952;SDS011;4511;50.890;8.054;2023-04-15T06:28:19;8.97;;;8.07;;
8952;SDS011;4511;50.890;8.054;2023-04-15T06:30:46;10.93;;;9.10;;
8952;SDS011;4511;50.890;8.054;2023-04-15T06:33:12;9.93;;;9.00;;
8952;SDS011;4511;50.890;8.054;2023-04-15T06:35:41;12.13;;;8.77;;
8952;SDS011;4511;50.890;8.054;2023-04-15T06:38:08;10.03;;;9.07;;
8952;SDS011;4511;50.890;8.054;2023-04-15T06:40:34;10.30;;;9.20;;
8952;SDS011;4511;50.890;8.054;2023-04-15T06:43:01;12.53;;;9.70;;
8952;SDS011;4511;50.890;8.054;2023-04-15T06:45:28;13.40;;;9.43;;
8952;SDS011;4511;50.890;8.054;2023-04-15T06:47:56;12.30;;;9.83;;
8952;SDS011;4511;50.890;8.054;2023-04-15T06:50:22;10.27;;;9.27;;
8952;SDS011;4511;50.890;8.054;2023-04-15T06:52:51;12.17;;;9.53;;
8952;SDS011;4511;50.890;8.054;2023-04-15T06:55:18;11.13;;;9.83;;
8952;SDS011;4511;50.890;8.054;2023-04-15T06:57:45;12.00;;;10.40;;
8952;SDS011;4511;50.890;8.054;2023-04-15T07:00:12;11.53;;;10.33;;
8952;SDS011;4511;50.890;8.054;2023-04-15T07:02:39;12.47;;;10.00;;
8952;SDS011;4511;50.890;8.054;2023-04-15T07:05:06;13.60;;;9.90;;
8952;SDS011;4511;50.890;8.054;2023-04-15T07:07:34;11.10;;;9.47;;
8952;SDS011;4511;50.890;8.054;2023-04-15T07:10:03;11.00;;;9.67;;
8952;SDS011;4511;50.890;8.054;2023-04-15T07:12:30;11.97;;;10.60;;
8952;SDS011;4511;50.890;8.054;2023-04-15T07:14:57;14.27;;;11.00;;
8952;SDS011;4511;50.890;8.054;2023-04-15T07:17:23;12.17;;;10.80;;
8952;SDS011;4511;50.890;8.054;2023-04-15T07:19:50;11.63;;;10.43;;
8952;SDS011;4511;50.890;8.054;2023-04-15T07:22:17;11.13;;;9.90;;
8952;SDS011;4511;50.890;8.054;2023-04-15T07:24:44;12.60;;;10.20;;
8952;SDS011;4511;50.890;8.054;2023-04-15T07:27:12;12.87;;;11.00;;
8952;SDS011;4511;50.890;8.054;2023-04-15T07:29:39;12.83;;;10.33;;
8952;SDS011;4511;50.890;8.054;2023-04-15T07:32:06;11.70;;;9.90;;
8952;SDS011;4511;50.890;8.054;2023-04-15T07:34:34;13.37;;;9.93;;
8952;SDS011;4511;50.890;8.054;2023-04-15T07:37:01;9.90;;;8.90;;
8952;SDS011;4511;50.890;8.054;2023-04-15T07:39:28;6.70;;;5.47;;
8952;SDS011;4511;50.890;8.054;2023-04-15T07:41:55;5.27;;;4.77;;
8952;SDS011;4511;50.890;8.054;2023-04-15T07:44:24;5.43;;;4.80;;
8952;SDS011;4511;50.890;8.054;2023-04-15T07:46:52;4.77;;;4.37;;
8952;SDS011;4511;50.890;8.054;2023-04-15T07:49:18;4.90;;;4.50;;
8952;SDS011;4511;50.890;8.054;2023-04-15T07:51:45;4.67;;;3.60;;
8952;SDS011;4511;50.890;8.054;2023-04-15T07:54:12;3.70;;;3.40;;
8952;SDS011;4511;50.890;8.054;2023-04-15T07:56:39;3.57;;;3.27;;
8952;SDS011;4511;50.890;8.054;2023-04-15T07:59:06;3.67;;;3.47;;
8952;SDS011;4511;50.890;8.054;2023-04-15T08:01:35;4.20;;;3.80;;
8952;SDS011;4511;50.890;8.054;2023-04-15T08:04:03;4.10;;;3.30;;
8952;SDS011;4511;50.890;8.054;2023-04-15T08:06:29;4.00;;;3.70;;
8952;SDS011;4511;50.890;8.054;2023-04-15T08:08:56;3.93;;;3.63;;
8952;SDS011;4511;50.890;8.054;2023-04-15T08:11:24;4.20;;;3.90;;
8952;SDS011;4511;50.890;8.054;2023-04-15T08:13:51;4.20;;;3.90;;
8952;SDS011;4511;50.890;8.054;2023-04-15T08:16:18;3.57;;;3.30;;
8952;SDS011;4511;50.890;8.054;2023-04-15T08:18:48;4.23;;;3.50;;
8952;SDS011;4511;50.890;8.054;2023-04-15T08:21:15;3.70;;;3.40;;
8952;SDS011;4511;50.890;8.054;2023-04-15T08:23:44;4.00;;;3.70;;
8952;SDS011;4511;50.890;8.054;2023-04-15T08:26:12;4.50;;;3.90;;
8952;SDS011;4511;50.890;8.054;2023-04-15T08:28:40;4.20;;;3.80;;
8952;SDS011;4511;50.890;8.054;2023-04-15T08:31:07;4.13;;;3.80;;
8952;SDS011;4511;50.890;8.054;2023-04-15T08:33:34;4.50;;;4.10;;
8952;SDS011;4511;50.890;8.054;2023-04-15T08:36:02;4.93;;;4.50;;
8952;SDS011;4511;50.890;8.054;2023-04-15T08:38:30;4.77;;;4.37;;
8952;SDS011;4511;50.890;8.054;2023-04-15T08:40:57;4.80;;;4.40;;
8952;SDS011;4511;50.890;8.054;2023-04-15T08:43:27;5.17;;;4.67;;
8952;SDS011;4511;50.890;8.054;2023-04-15T08:45:58;5.80;;;4.53;;
8952;SDS011;4511;50.890;8.054;2023-04-15T08:48:27;4.63;;;4.23;;
8952;SDS011;4511;50.890;8.054;2023-04-15T08:50:55;4.97;;;4.57;;
8952;SDS011;4511;50.890;8.054;2023-04-15T08:53:24;4.50;;;4.10;;
8952;SDS011;4511;50.890;8.054;2023-04-15T08:55:53;4.03;;;3.73;;
8952;SDS011;4511;50.890;8.054;2023-04-15T08:58:23;5.03;;;4.20;;
8952;SDS011;4511;50.890;8.054;2023-04-15T09:00:50;4.83;;;4.00;;
8952;SDS011;4511;50.890;8.054;2023-04-15T09:03:17;4.43;;;4.13;;
8952;SDS011;4511;50.890;8.054;2023-04-15T09:05:45;4.70;;;4.30;;
8952;SDS011;4511;50.890;8.054;2023-04-15T09:08:12;4.93;;;4.53;;
8952;SDS011;4511;50.890;8.054;2023-04-15T09:10:40;5.33;;;4.80;;
8952;SDS011;4511;50.890;8.054;2023-04-15T09:13:07;5.17;;;4.70;;
8952;SDS011;4511;50.890;8.054;2023-04-15T09:15:34;4.90;;;4.50;;
8952;SDS011;4511;50.890;8.054;2023-04-15T09:18:03;4.27;;;3.97;;
8952;SDS011;4511;50.890;8.054;2023-04-15T09:20:32;4.10;;;3.80;;
8952;SDS011;4511;50.890;8.054;2023-04-15T09:23:10;4.70;;;4.30;;
8952;SDS011;4511;50.890;8.054;2023-04-15T09:25:38;4.37;;;3.67;;
8952;SDS011;4511;50.890;8.054;2023-04-15T09:28:07;4.73;;;4.33;;
8952;SDS011;4511;50.890;8.054;2023-04-15T09:30:34;4.97;;;4.50;;
8952;SDS011;4511;50.890;8.054;2023-04-15T09:33:01;6.97;;;4.10;;
8952;SDS011;4511;50.890;8.054;2023-04-15T09:35:32;4.93;;;4.53;;
8952;SDS011;4511;50.890;8.054;2023-04-15T09:38:01;5.03;;;4.63;;
8952;SDS011;4511;50.890;8.054;2023-04-15T09:40:32;5.03;;;4.47;;
8952;SDS011;4511;50.890;8.054;2023-04-15T09:43:02;5.50;;;5.00;;
8952;SDS011;4511;50.890;8.054;2023-04-15T09:45:29;5.00;;;4.60;;
8952;SDS011;4511;50.890;8.054;2023-04-15T09:47:58;5.53;;;5.00;;
8952;SDS011;4511;50.890;8.054;2023-04-15T09:50:39;5.20;;;4.80;;
8952;SDS011;4511;50.890;8.054;2023-04-15T09:53:08;4.90;;;4.50;;
8952;SDS011;4511;50.890;8.054;2023-04-15T09:55:35;5.20;;;4.80;;
8952;SDS011;4511;50.890;8.054;2023-04-15T09:58:04;5.33;;;4.93;;
8952;SDS011;4511;50.890;8.054;2023-04-15T10:00:34;5.50;;;5.00;;
8952;SDS011;4511;50.890;8.054;2023-04-15T10:03:02;5.43;;;4.93;;
8952;SDS011;4511;50.890;8.054;2023-04-15T10:05:31;5.63;;;5.20;;
8952;SDS011;4511;50.890;8.054;2023-04-15T10:07:59;5.33;;;4.93;;
8952;SDS011;4511;50.890;8.054;2023-04-15T10:10:26;5.10;;;4.70;;
8952;SDS011;4511;50.890;8.054;2023-04-15T10:12:53;4.80;;;4.40;;
8952;SDS011;4511;50.890;8.054;2023-04-15T10:15:22;5.00;;;4.50;;
8952;SDS011;4511;50.890;8.054;2023-04-15T10:17:50;5.50;;;5.03;;
8952;SDS011;4511;50.890;8.054;2023-04-15T10:20:19;6.00;;;5.40;;
8952;SDS011;4511;50.890;8.054;2023-04-15T10:22:47;5.30;;;4.80;;
8952;SDS011;4511;50.890;8.054;2023-04-15T10:25:15;5.00;;;4.60;;
8952;SDS011;4511;50.890;8.054;2023-04-15T10:27:42;5.30;;;4.90;;
8952;SDS011;4511;50.890;8.054;2023-04-15T10:30:09;5.87;;;5.27;;
8952;SDS011;4511;50.890;8.054;2023-04-15T10:32:38;5.33;;;4.87;;
8952;SDS011;4511;50.890;8.054;2023-04-15T10:35:06;5.63;;;5.23;;
8952;SDS011;4511;50.890;8.054;2023-04-15T10:37:35;5.73;;;5.23;;
8952;SDS011;4511;50.890;8.054;2023-04-15T10:42:50;5.30;;;4.90;;
8952;SDS011;4511;50.890;8.054;2023-04-15T10:45:17;5.43;;;5.00;;
8952;SDS011;4511;50.890;8.054;2023-04-15T10:47:45;5.47;;;5.07;;
8952;SDS011;4511;50.890;8.054;2023-04-15T10:50:18;5.43;;;5.03;;
8952;SDS011;4511;50.890;8.054;2023-04-15T10:52:45;5.67;;;5.17;;
8952;SDS011;4511;50.890;8.054;2023-04-15T10:55:17;6.43;;;5.30;;
8952;SDS011;4511;50.890;8.054;2023-04-15T10:57:45;6.57;;;5.97;;
8952;SDS011;4511;50.890;8.054;2023-04-15T11:00:17;7.00;;;6.40;;
8952;SDS011;4511;50.890;8.054;2023-04-15T11:02:46;6.70;;;6.20;;
8952;SDS011;4511;50.890;8.054;2023-04-15T11:05:17;7.23;;;6.60;;
8952;SDS011;4511;50.890;8.054;2023-04-15T11:07:50;7.27;;;6.67;;
8952;SDS011;4511;50.890;8.054;2023-04-15T11:13:19;7.00;;;6.40;;
8952;SDS011;4511;50.890;8.054;2023-04-15T11:15:49;7.70;;;7.10;;
8952;SDS011;4511;50.890;8.054;2023-04-15T11:18:20;7.67;;;6.97;;
8952;SDS011;4511;50.890;8.054;2023-04-15T11:24:10;8.20;;;7.50;;
8952;SDS011;4511;50.890;8.054;2023-04-15T11:26:37;7.77;;;7.07;;
8952;SDS011;4511;50.890;8.054;2023-04-15T11:29:04;7.90;;;7.10;;
8952;SDS011;4511;50.890;8.054;2023-04-15T11:31:30;7.90;;;7.20;;
8952;SDS011;4511;50.890;8.054;2023-04-15T11:33:59;8.07;;;7.37;;
8952;SDS011;4511;50.890;8.054;2023-04-15T11:36:27;8.30;;;7.43;;
8952;SDS011;4511;50.890;8.054;2023-04-15T11:38:56;6.93;;;6.33;;
8952;SDS011;4511;50.890;8.054;2023-04-15T11:41:23;6.80;;;6.20;;
8952;SDS011;4511;50.890;8.054;2023-04-15T11:43:50;7.07;;;6.37;;
8952;SDS011;4511;50.890;8.054;2023-04-15T11:46:17;6.63;;;6.03;;
8952;SDS011;4511;50.890;8.054;2023-04-15T11:48:45;6.47;;;5.93;;
8952;SDS011;4511;50.890;8.054;2023-04-15T11:51:13;6.67;;;6.07;;
8952;SDS011;4511;50.890;8.054;2023-04-15T11:53:41;6.40;;;5.80;;
8952;SDS011;4511;50.890;8.054;2023-04-15T11:56:10;7.07;;;6.37;;
8952;SDS011;4511;50.890;8.054;2023-04-15T11:58:42;6.60;;;6.00;;
8952;SDS011;4511;50.890;8.054;2023-04-15T12:01:10;6.70;;;6.10;;
8952;SDS011;4511;50.890;8.054;2023-04-15T12:03:37;6.63;;;6.03;;
8952;SDS011;4511;50.890;8.054;2023-04-15T12:06:09;6.80;;;6.20;;
8952;SDS011;4511;50.890;8.054;2023-04-15T12:08:52;6.20;;;5.60;;
8952;SDS011;4511;50.890;8.054;2023-04-15T12:11:27;6.63;;;6.03;;
8952;SDS011;4511;50.890;8.054;2023-04-15T12:13:58;7.40;;;6.27;;
8952;SDS011;4511;50.890;8.054;2023-04-15T12:16:29;6.40;;;5.80;;
8952;SDS011;4511;50.890;8.054;2023-04-15T12:18:56;6.23;;;5.63;;
8952;SDS011;4511;50.890;8.054;2023-04-15T12:21:24;6.00;;;5.17;;
8952;SDS011;4511;50.890;8.054;2023-04-15T12:23:55;5.37;;;4.87;;
8952;SDS011;4511;50.890;8.054;2023-04-15T12:26:25;5.43;;;5.03;;
8952;SDS011;4511;50.890;8.054;2023-04-15T12:28:53;5.73;;;5.23;;
8952;SDS011;4511;50.890;8.054;2023-04-15T12:31:20;4.90;;;4.50;;
8952;SDS011;4511;50.890;8.054;2023-04-15T12:33:47;4.40;;;4.10;;
8952;SDS011;4511;50.890;8.054;2023-04-15T12:36:15;5.10;;;4.70;;
8952;SDS011;4511;50.890;8.054;2023-04-15T12:38:41;5.37;;;4.93;;
8952;SDS011;4511;50.890;8.054;2023-04-15T12:41:09;5.23;;;4.83;;
8952;SDS011;4511;50.890;8.054;2023-04-15T12:43:36;4.90;;;4.50;;
8952;SDS011;4511;50.890;8.054;2023-04-15T12:46:03;4.83;;;4.20;;
8952;SDS011;4511;50.890;8.054;2023-04-15T12:48:30;5.40;;;4.90;;
8952;SDS011;4511;50.890;8.054;2023-04-15T12:50:59;4.63;;;4.23;;
8952;SDS011;4511;50.890;8.054;2023-04-15T12:53:26;4.40;;;4.00;;
8952;SDS011;4511;50.890;8.054;2023-04-15T12:55:53;4.77;;;4.40;;
8952;SDS011;4511;50.890;8.054;2023-04-15T12:58:21;4.10;;;3.80;;
8952;SDS011;4511;50.890;8.054;2023-04-15T13:00:48;4.70;;;4.30;;
8952;SDS011;4511;50.890;8.054;2023-04-15T13:03:15;5.90;;;5.40;;
8952;SDS011;4511;50.890;8.054;2023-04-15T13:05:42;4.77;;;4.20;;
8952;SDS011;4511;50.890;8.054;2023-04-15T13:08:09;4.00;;;3.70;;
8952;SDS011;4511;50.890;8.054;2023-04-15T13:10:36;3.40;;;3.20;;
8952;SDS011;4511;50.890;8.054;2023-04-15T13:13:03;3.90;;;3.60;;
8952;SDS011;4511;50.890;8.054;2023-04-15T13:15:31;4.40;;;4.00;;
8952;SDS011;4511;50.890;8.054;2023-04-15T13:17:58;4.67;;;3.90;;
8952;SDS011;4511;50.890;8.054;2023-04-15T13:20:25;4.33;;;4.00;;
8952;SDS011;4511;50.890;8.054;2023-04-15T13:22:52;3.53;;;3.33;;
8952;SDS011;4511;50.890;8.054;2023-04-15T13:25:19;3.43;;;3.13;;
8952;SDS011;4511;50.890;8.054;2023-04-15T13:27:46;3.30;;;3.00;;
8952;SDS011;4511;50.890;8.054;2023-04-15T13:30:13;3.50;;;3.30;;
8952;SDS011;4511;50.890;8.054;2023-04-15T13:32:41;3.80;;;3.50;;
8952;SDS011;4511;50.890;8.054;2023-04-15T13:35:08;3.97;;;3.67;;
8952;SDS011;4511;50.890;8.054;2023-04-15T13:37:34;3.67;;;3.37;;
8952;SDS011;4511;50.890;8.054;2023-04-15T13:40:01;3.90;;;3.60;;
8952;SDS011;4511;50.890;8.054;2023-04-15T13:42:31;3.90;;;3.50;;
8952;SDS011;4511;50.890;8.054;2023-04-15T13:44:59;4.07;;;3.77;;
8952;SDS011;4511;50.890;8.054;2023-04-15T13:47:26;3.80;;;3.50;;
8952;SDS011;4511;50.890;8.054;2023-04-15T13:49:54;3.30;;;3.10;;
8952;SDS011;4511;50.890;8.054;2023-04-15T13:52:21;3.30;;;3.00;;
8952;SDS011;4511;50.890;8.054;2023-04-15T13:54:47;3.50;;;3.20;;
8952;SDS011;4511;50.890;8.054;2023-04-15T13:57:14;3.30;;;3.10;;
8952;SDS011;4511;50.890;8.054;2023-04-15T13:59:41;3.20;;;3.00;;
8952;SDS011;4511;50.890;8.054;2023-04-15T14:02:08;3.40;;;3.20;;
8952;SDS011;4511;50.890;8.054;2023-04-15T14:04:35;3.40;;;3.20;;
8952;SDS011;4511;50.890;8.054;2023-04-15T14:07:03;3.63;;;3.43;;
8952;SDS011;4511;50.890;8.054;2023-04-15T14:09:30;3.90;;;3.60;;
8952;SDS011;4511;50.890;8.054;2023-04-15T14:11:57;3.50;;;3.30;;
8952;SDS011;4511;50.890;8.054;2023-04-15T14:14:24;4.03;;;3.63;;
8952;SDS011;4511;50.890;8.054;2023-04-15T14:16:50;4.07;;;3.77;;
8952;SDS011;4511;50.890;8.054;2023-04-15T14:19:17;4.20;;;3.90;;
8952;SDS011;4511;50.890;8.054;2023-04-15T14:21:44;3.87;;;3.57;;
8952;SDS011;4511;50.890;8.054;2023-04-15T14:24:12;3.37;;;3.17;;
8952;SDS011;4511;50.890;8.054;2023-04-15T14:26:39;3.90;;;3.60;;
8952;SDS011;4511;50.890;8.054;2023-04-15T14:29:06;3.60;;;3.30;;
8952;SDS011;4511;50.890;8.054;2023-04-15T14:31:32;3.50;;;3.30;;
8952;SDS011;4511;50.890;8.054;2023-04-15T14:33:59;3.53;;;3.33;;
8952;SDS011;4511;50.890;8.054;2023-04-15T14:36:26;4.50;;;4.10;;
8952;SDS011;4511;50.890;8.054;2023-04-15T14:38:52;3.77;;;3.47;;
8952;SDS011;4511;50.890;8.054;2023-04-15T14:41:21;4.20;;;3.90;;
8952;SDS011;4511;50.890;8.054;2023-04-15T14:43:47;4.20;;;3.90;;
8952;SDS011;4511;50.890;8.054;2023-04-15T14:46:14;4.50;;;4.10;;
8952;SDS011;4511;50.890;8.054;2023-04-15T14:48:41;3.67;;;3.37;;
8952;SDS011;4511;50.890;8.054;2023-04-15T14:51:08;4.53;;;4.23;;
8952;SDS011;4511;50.890;8.054;2023-04-15T14:53:35;4.03;;;3.73;;
8952;SDS011;4511;50.890;8.054;2023-04-15T14:56:02;3.90;;;3.60;;
8952;SDS011;4511;50.890;8.054;2023-04-15T14:58:30;5.27;;;4.20;;
8952;SDS011;4511;50.890;8.054;2023-04-15T15:00:57;4.37;;;4.07;;
8952;SDS011;4511;50.890;8.054;2023-04-15T15:03:24;3.73;;;3.43;;
8952;SDS011;4511;50.890;8.054;2023-04-15T15:05:51;3.63;;;3.37;;
8952;SDS011;4511;50.890;8.054;2023-04-15T15:08:17;4.10;;;3.70;;
8952;SDS011;4511;50.890;8.054;2023-04-15T15:10:44;3.63;;;3.43;;
8952;SDS011;4511;50.890;8.054;2023-04-15T15:13:11;3.60;;;3.30;;
8952;SDS011;4511;50.890;8.054;2023-04-15T15:15:40;4.10;;;3.80;;
8952;SDS011;4511;50.890;8.054;2023-04-15T15:18:07;3.73;;;3.43;;
8952;SDS011;4511;50.890;8.054;2023-04-15T15:20:33;3.70;;;3.40;;
8952;SDS011;4511;50.890;8.054;2023-04-15T15:23:00;3.50;;;3.30;;